sensor_id;sensor_type;location;lat;lon;timestamp;P1;durP1;ratioP1;P2;durP2;ratioP2
57055;SDS011;42945;51.718;5.324;2023-07-31T00:01:55;39.92;;;10.48;;
57055;SDS011;42945;51.718;5.324;2023-07-31T00:04:20;38.50;;;10.23;;
57055;SDS011;42945;51.718;5.324;2023-07-31T00:06:46;44.38;;;11.43;;
57055;SDS011;42945;51.718;5.324;2023-07-31T00:09:11;43.22;;;10.45;;
57055;SDS011;42945;51.718;5.324;2023-07-31T00:11:36;33.08;;;9.50;;
57055;SDS011;42945;51.718;5.324;2023-07-31T00:14:02;35.65;;;10.48;;
57055;SDS011;42945;51.718;5.324;2023-07-31T00:16:27;37.00;;;9.95;;
57055;SDS011;42945;51.718;5.324;2023-07-31T00:18:52;38.60;;;10.43;;
57055;SDS011;42945;51.718;5.324;2023-07-31T00:21:18;34.63;;;10.25;;
57055;SDS011;42945;51.718;5.324;2023-07-31T00:23:43;34.13;;;9.15;;
57055;SDS011;42945;51.718;5.324;2023-07-31T00:26:08;30.42;;;9.07;;
57055;SDS011;42945;51.718;5.324;2023-07-31T00:28:34;38.60;;;8.70;;
57055;SDS011;42945;51.718;5.324;2023-07-31T00:30:59;33.78;;;8.63;;
57055;SDS011;42945;51.718;5.324;2023-07-31T00:33:24;37.10;;;9.15;;
57055;SDS011;42945;51.718;5.324;2023-07-31T00:35:50;30.13;;;7.55;;
57055;SDS011;42945;51.718;5.324;2023-07-31T00:38:15;25.98;;;7.40;;
57055;SDS011;42945;51.718;5.324;2023-07-31T00:40:40;26.20;;;7.35;;
57055;SDS011;42945;51.718;5.324;2023-07-31T00:43:05;29.17;;;7.30;;
57055;SDS011;42945;51.718;5.324;2023-07-31T00:45:31;34.58;;;7.80;;
57055;SDS011;42945;51.718;5.324;2023-07-31T00:47:57;29.33;;;7.10;;
57055;SDS011;42945;51.718;5.324;2023-07-31T00:50:24;30.95;;;7.32;;
57055;SDS011;42945;51.718;5.324;2023-07-31T00:52:51;24.05;;;6.90;;
57055;SDS011;42945;51.718;5.324;2023-07-31T00:55:17;23.58;;;6.47;;
57055;SDS011;42945;51.718;5.324;2023-07-31T00:57:42;26.38;;;6.88;;
57055;SDS011;42945;51.718;5.324;2023-07-31T01:00:10;27.73;;;7.15;;
57055;SDS011;42945;51.718;5.324;2023-07-31T01:02:36;22.05;;;6.70;;
57055;SDS011;42945;51.718;5.324;2023-07-31T01:05:02;23.55;;;6.38;;
57055;SDS011;42945;51.718;5.324;2023-07-31T01:10:07;24.73;;;7.45;;
57055;SDS011;42945;51.718;5.324;2023-07-31T01:15:09;25.13;;;7.53;;
57055;SDS011;42945;51.718;5.324;2023-07-31T01:17:39;24.38;;;7.13;;
57055;SDS011;42945;51.718;5.324;2023-07-31T01:20:12;31.10;;;7.07;;
57055;SDS011;42945;51.718;5.324;2023-07-31T01:23:01;25.98;;;7.55;;
57055;SDS011;42945;51.718;5.324;2023-07-31T01:28:25;21.50;;;6.70;;
57055;SDS011;42945;51.718;5.324;2023-07-31T01:30:55;25.67;;;5.80;;
57055;SDS011;42945;51.718;5.324;2023-07-31T01:33:25;22.73;;;6.57;;
57055;SDS011;42945;51.718;5.324;2023-07-31T01:35:50;21.45;;;6.43;;
57055;SDS011;42945;51.718;5.324;2023-07-31T01:38:20;21.50;;;5.93;;
57055;SDS011;42945;51.718;5.324;2023-07-31T01:40:46;25.48;;;6.65;;
57055;SDS011;42945;51.718;5.324;2023-07-31T01:43:17;23.20;;;6.47;;
57055;SDS011;42945;51.718;5.324;2023-07-31T01:45:42;25.40;;;6.43;;
57055;SDS011;42945;51.718;5.324;2023-07-31T01:48:08;24.40;;;6.75;;
57055;SDS011;42945;51.718;5.324;2023-07-31T01:50:33;23.50;;;5.90;;
57055;SDS011;42945;51.718;5.324;2023-07-31T01:52:58;19.35;;;6.35;;
57055;SDS011;42945;51.718;5.324;2023-07-31T01:55:24;24.42;;;6.50;;
57055;SDS011;42945;51.718;5.324;2023-07-31T01:57:49;22.67;;;6.90;;
57055;SDS011;42945;51.718;5.324;2023-07-31T02:00:14;23.13;;;6.70;;
57055;SDS011;42945;51.718;5.324;2023-07-31T02:02:40;20.45;;;7.10;;
57055;SDS011;42945;51.718;5.324;2023-07-31T02:05:05;24.58;;;6.57;;
57055;SDS011;42945;51.718;5.324;2023-07-31T02:07:31;24.10;;;7.70;;
57055;SDS011;42945;51.718;5.324;2023-07-31T02:09:56;18.77;;;6.85;;
57055;SDS011;42945;51.718;5.324;2023-07-31T02:12:21;25.20;;;6.80;;
57055;SDS011;42945;51.718;5.324;2023-07-31T02:14:47;26.52;;;6.55;;
57055;SDS011;42945;51.718;5.324;2023-07-31T02:17:12;22.95;;;6.63;;
57055;SDS011;42945;51.718;5.324;2023-07-31T02:19:37;27.75;;;6.53;;
57055;SDS011;42945;51.718;5.324;2023-07-31T02:22:03;21.48;;;6.00;;
57055;SDS011;42945;51.718;5.324;2023-07-31T02:24:28;23.38;;;6.85;;
57055;SDS011;42945;51.718;5.324;2023-07-31T02:26:54;23.38;;;7.13;;
57055;SDS011;42945;51.718;5.324;2023-07-31T02:29:19;23.23;;;6.80;;
57055;SDS011;42945;51.718;5.324;2023-07-31T02:31:44;20.13;;;5.85;;
57055;SDS011;42945;51.718;5.324;2023-07-31T02:34:10;21.75;;;6.43;;
57055;SDS011;42945;51.718;5.324;2023-07-31T02:36:35;25.27;;;6.40;;
57055;SDS011;42945;51.718;5.324;2023-07-31T02:39:01;23.42;;;6.00;;
57055;SDS011;42945;51.718;5.324;2023-07-31T02:41:26;25.05;;;7.05;;
57055;SDS011;42945;51.718;5.324;2023-07-31T02:43:52;26.60;;;6.55;;
57055;SDS011;42945;51.718;5.324;2023-07-31T02:46:19;24.80;;;6.20;;
57055;SDS011;42945;51.718;5.324;2023-07-31T02:48:45;22.83;;;7.00;;
57055;SDS011;42945;51.718;5.324;2023-07-31T02:51:10;25.13;;;6.30;;
57055;SDS011;42945;51.718;5.324;2023-07-31T02:53:35;20.98;;;6.10;;
57055;SDS011;42945;51.718;5.324;2023-07-31T02:56:01;21.40;;;5.70;;
57055;SDS011;42945;51.718;5.324;2023-07-31T02:58:26;19.77;;;5.88;;
57055;SDS011;42945;51.718;5.324;2023-07-31T03:00:51;24.40;;;6.43;;
57055;SDS011;42945;51.718;5.324;2023-07-31T03:03:17;26.33;;;7.00;;
57055;SDS011;42945;51.718;5.324;2023-07-31T03:05:42;28.42;;;6.13;;
57055;SDS011;42945;51.718;5.324;2023-07-31T03:08:07;21.70;;;5.88;;
57055;SDS011;42945;51.718;5.324;2023-07-31T03:10:33;20.02;;;5.45;;
57055;SDS011;42945;51.718;5.324;2023-07-31T03:12:58;25.50;;;6.60;;
57055;SDS011;42945;51.718;5.324;2023-07-31T03:15:23;22.40;;;5.85;;
57055;SDS011;42945;51.718;5.324;2023-07-31T03:17:49;20.92;;;5.75;;
57055;SDS011;42945;51.718;5.324;2023-07-31T03:20:14;18.17;;;5.80;;
57055;SDS011;42945;51.718;5.324;2023-07-31T03:22:39;28.90;;;6.35;;
57055;SDS011;42945;51.718;5.324;2023-07-31T03:25:05;21.35;;;6.07;;
57055;SDS011;42945;51.718;5.324;2023-07-31T03:27:30;26.63;;;6.00;;
57055;SDS011;42945;51.718;5.324;2023-07-31T03:29:56;22.73;;;5.90;;
57055;SDS011;42945;51.718;5.324;2023-07-31T03:32:21;19.23;;;5.88;;
57055;SDS011;42945;51.718;5.324;2023-07-31T03:34:46;21.67;;;6.00;;
57055;SDS011;42945;51.718;5.324;2023-07-31T03:37:12;25.15;;;5.85;;
57055;SDS011;42945;51.718;5.324;2023-07-31T03:39:37;24.42;;;5.75;;
57055;SDS011;42945;51.718;5.324;2023-07-31T03:42:03;19.33;;;6.18;;
57055;SDS011;42945;51.718;5.324;2023-07-31T03:44:29;25.98;;;6.88;;
57055;SDS011;42945;51.718;5.324;2023-07-31T03:49:51;22.23;;;6.18;;
57055;SDS011;42945;51.718;5.324;2023-07-31T03:52:16;26.50;;;5.97;;
57055;SDS011;42945;51.718;5.324;2023-07-31T03:54:42;17.40;;;5.60;;
57055;SDS011;42945;51.718;5.324;2023-07-31T03:57:09;20.80;;;6.43;;
57055;SDS011;42945;51.718;5.324;2023-07-31T03:59:35;21.95;;;6.32;;
57055;SDS011;42945;51.718;5.324;2023-07-31T04:02:00;27.15;;;6.07;;
57055;SDS011;42945;51.718;5.324;2023-07-31T04:04:25;26.50;;;5.95;;
57055;SDS011;42945;51.718;5.324;2023-07-31T04:06:51;19.25;;;5.78;;
57055;SDS011;42945;51.718;5.324;2023-07-31T04:09:17;24.08;;;6.57;;
57055;SDS011;42945;51.718;5.324;2023-07-31T04:11:42;22.52;;;6.70;;
57055;SDS011;42945;51.718;5.324;2023-07-31T04:14:08;24.85;;;6.30;;
57055;SDS011;42945;51.718;5.324;2023-07-31T04:16:33;22.98;;;6.97;;
57055;SDS011;42945;51.718;5.324;2023-07-31T04:18:59;24.25;;;6.18;;
57055;SDS011;42945;51.718;5.324;2023-07-31T04:21:24;20.08;;;5.45;;
57055;SDS011;42945;51.718;5.324;2023-07-31T04:23:49;24.42;;;5.65;;
57055;SDS011;42945;51.718;5.324;2023-07-31T04:26:14;21.98;;;6.13;;
57055;SDS011;42945;51.718;5.324;2023-07-31T04:28:40;18.90;;;5.30;;
57055;SDS011;42945;51.718;5.324;2023-07-31T04:31:06;24.88;;;6.15;;
57055;SDS011;42945;51.718;5.324;2023-07-31T04:33:31;21.58;;;6.10;;
57055;SDS011;42945;51.718;5.324;2023-07-31T04:35:57;19.05;;;5.22;;
57055;SDS011;42945;51.718;5.324;2023-07-31T04:38:23;19.85;;;6.20;;
57055;SDS011;42945;51.718;5.324;2023-07-31T04:40:48;18.90;;;5.50;;
57055;SDS011;42945;51.718;5.324;2023-07-31T04:43:14;20.77;;;5.78;;
57055;SDS011;42945;51.718;5.324;2023-07-31T04:45:39;17.45;;;5.15;;
57055;SDS011;42945;51.718;5.324;2023-07-31T04:48:08;20.40;;;6.53;;
57055;SDS011;42945;51.718;5.324;2023-07-31T04:50:33;20.55;;;6.30;;
57055;SDS011;42945;51.718;5.324;2023-07-31T04:52:58;19.58;;;5.43;;
57055;SDS011;42945;51.718;5.324;2023-07-31T04:55:23;23.20;;;5.88;;
57055;SDS011;42945;51.718;5.324;2023-07-31T04:57:49;18.45;;;5.47;;
57055;SDS011;42945;51.718;5.324;2023-07-31T05:00:14;22.20;;;5.57;;
57055;SDS011;42945;51.718;5.324;2023-07-31T05:02:40;19.92;;;5.75;;
57055;SDS011;42945;51.718;5.324;2023-07-31T05:05:05;21.38;;;5.95;;
57055;SDS011;42945;51.718;5.324;2023-07-31T05:07:31;18.80;;;6.22;;
57055;SDS011;42945;51.718;5.324;2023-07-31T05:09:57;25.80;;;5.82;;
57055;SDS011;42945;51.718;5.324;2023-07-31T05:12:22;34.25;;;6.90;;
57055;SDS011;42945;51.718;5.324;2023-07-31T05:14:47;27.98;;;5.93;;
57055;SDS011;42945;51.718;5.324;2023-07-31T05:17:12;25.67;;;6.03;;
57055;SDS011;42945;51.718;5.324;2023-07-31T05:19:38;23.73;;;6.53;;
57055;SDS011;42945;51.718;5.324;2023-07-31T05:22:03;22.95;;;5.93;;
57055;SDS011;42945;51.718;5.324;2023-07-31T05:24:29;21.63;;;6.03;;
57055;SDS011;42945;51.718;5.324;2023-07-31T05:26:55;20.77;;;6.30;;
57055;SDS011;42945;51.718;5.324;2023-07-31T15:14:38;10.80;;;5.40;;
57055;SDS011;42945;51.718;5.324;2023-07-31T15:17:03;11.93;;;5.38;;
57055;SDS011;42945;51.718;5.324;2023-07-31T15:19:29;11.32;;;5.50;;
57055;SDS011;42945;51.718;5.324;2023-07-31T15:24:30;8.82;;;4.10;;
57055;SDS011;42945;51.718;5.324;2023-07-31T15:26:56;12.25;;;4.80;;
57055;SDS011;42945;51.718;5.324;2023-07-31T15:29:23;11.27;;;3.83;;
57055;SDS011;42945;51.718;5.324;2023-07-31T15:42:39;8.57;;;2.78;;
57055;SDS011;42945;51.718;5.324;2023-07-31T15:50:32;3.60;;;1.30;;
57055;SDS011;42945;51.718;5.324;2023-07-31T15:52:58;4.97;;;1.63;;
57055;SDS011;42945;51.718;5.324;2023-07-31T15:55:23;4.35;;;1.55;;
57055;SDS011;42945;51.718;5.324;2023-07-31T15:57:49;5.30;;;1.27;;
57055;SDS011;42945;51.718;5.324;2023-07-31T16:00:15;2.28;;;1.15;;
57055;SDS011;42945;51.718;5.324;2023-07-31T16:02:41;1.67;;;1.02;;
57055;SDS011;42945;51.718;5.324;2023-07-31T16:05:06;1.77;;;1.02;;
57055;SDS011;42945;51.718;5.324;2023-07-31T16:07:32;7.63;;;1.20;;
57055;SDS011;42945;51.718;5.324;2023-07-31T20:22:28;5.15;;;3.22;;
57055;SDS011;42945;51.718;5.324;2023-07-31T20:24:55;5.13;;;3.45;;
57055;SDS011;42945;51.718;5.324;2023-07-31T20:27:21;4.43;;;3.00;;
57055;SDS011;42945;51.718;5.324;2023-07-31T20:29:47;5.57;;;3.65;;
57055;SDS011;42945;51.718;5.324;2023-07-31T20:32:12;6.75;;;3.03;;
57055;SDS011;42945;51.718;5.324;2023-07-31T20:34:37;7.57;;;3.30;;
57055;SDS011;42945;51.718;5.324;2023-07-31T20:37:03;6.22;;;3.45;;
57055;SDS011;42945;51.718;5.324;2023-07-31T20:39:29;7.53;;;3.50;;
57055;SDS011;42945;51.718;5.324;2023-07-31T20:41:55;4.90;;;2.75;;
57055;SDS011;42945;51.718;5.324;2023-07-31T20:44:20;5.95;;;3.30;;
57055;SDS011;42945;51.718;5.324;2023-07-31T20:46:46;5.82;;;3.35;;
57055;SDS011;42945;51.718;5.324;2023-07-31T20:49:11;4.28;;;3.25;;
57055;SDS011;42945;51.718;5.324;2023-07-31T20:51:37;5.43;;;3.00;;
57055;SDS011;42945;51.718;5.324;2023-07-31T20:54:04;5.25;;;3.33;;
57055;SDS011;42945;51.718;5.324;2023-07-31T20:56:30;5.10;;;3.33;;
57055;SDS011;42945;51.718;5.324;2023-07-31T20:58:55;5.80;;;3.10;;
57055;SDS011;42945;51.718;5.324;2023-07-31T21:01:21;4.53;;;3.05;;
57055;SDS011;42945;51.718;5.324;2023-07-31T21:03:46;6.28;;;3.38;;
57055;SDS011;42945;51.718;5.324;2023-07-31T21:06:12;6.20;;;3.65;;
57055;SDS011;42945;51.718;5.324;2023-07-31T21:08:38;5.13;;;3.03;;
57055;SDS011;42945;51.718;5.324;2023-07-31T21:11:04;7.55;;;3.03;;
57055;SDS011;42945;51.718;5.324;2023-07-31T21:13:29;4.82;;;2.85;;
57055;SDS011;42945;51.718;5.324;2023-07-31T21:15:58;6.20;;;3.17;;
57055;SDS011;42945;51.718;5.324;2023-07-31T21:18:24;9.20;;;3.22;;
57055;SDS011;42945;51.718;5.324;2023-07-31T21:20:50;5.07;;;2.75;;
57055;SDS011;42945;51.718;5.324;2023-07-31T21:23:16;6.65;;;3.03;;
57055;SDS011;42945;51.718;5.324;2023-07-31T21:25:42;4.50;;;2.53;;
57055;SDS011;42945;51.718;5.324;2023-07-31T21:28:07;5.03;;;2.85;;
57055;SDS011;42945;51.718;5.324;2023-07-31T21:30:35;4.88;;;2.50;;
57055;SDS011;42945;51.718;5.324;2023-07-31T21:33:01;5.50;;;2.30;;
57055;SDS011;42945;51.718;5.324;2023-07-31T21:35:26;7.50;;;2.95;;
57055;SDS011;42945;51.718;5.324;2023-07-31T21:37:55;3.50;;;2.50;;
57055;SDS011;42945;51.718;5.324;2023-07-31T21:40:24;5.32;;;2.88;;
57055;SDS011;42945;51.718;5.324;2023-07-31T21:42:51;4.68;;;2.67;;
57055;SDS011;42945;51.718;5.324;2023-07-31T21:45:18;8.00;;;3.22;;
57055;SDS011;42945;51.718;5.324;2023-07-31T21:47:44;4.88;;;2.88;;
57055;SDS011;42945;51.718;5.324;2023-07-31T21:50:10;9.77;;;3.70;;
57055;SDS011;42945;51.718;5.324;2023-07-31T21:52:36;6.85;;;3.38;;
57055;SDS011;42945;51.718;5.324;2023-07-31T21:55:01;9.43;;;3.70;;
57055;SDS011;42945;51.718;5.324;2023-07-31T21:57:27;6.28;;;3.75;;
57055;SDS011;42945;51.718;5.324;2023-07-31T21:59:53;9.65;;;4.10;;
57055;SDS011;42945;51.718;5.324;2023-07-31T22:02:19;9.25;;;4.13;;
57055;SDS011;42945;51.718;5.324;2023-07-31T22:04:44;9.50;;;4.15;;
57055;SDS011;42945;51.718;5.324;2023-07-31T22:07:10;11.20;;;4.50;;
57055;SDS011;42945;51.718;5.324;2023-07-31T22:09:35;8.68;;;4.18;;
57055;SDS011;42945;51.718;5.324;2023-07-31T22:12:01;8.73;;;4.72;;
57055;SDS011;42945;51.718;5.324;2023-07-31T22:14:26;9.40;;;4.45;;
57055;SDS011;42945;51.718;5.324;2023-07-31T22:16:52;8.65;;;5.05;;
57055;SDS011;42945;51.718;5.324;2023-07-31T22:19:17;11.43;;;5.18;;
57055;SDS011;42945;51.718;5.324;2023-07-31T22:21:43;8.55;;;5.25;;
57055;SDS011;42945;51.718;5.324;2023-07-31T22:24:09;9.27;;;5.32;;
57055;SDS011;42945;51.718;5.324;2023-07-31T22:26:34;12.20;;;5.18;;
57055;SDS011;42945;51.718;5.324;2023-07-31T22:28:59;9.60;;;5.43;;
57055;SDS011;42945;51.718;5.324;2023-07-31T22:31:25;10.15;;;5.10;;
57055;SDS011;42945;51.718;5.324;2023-07-31T22:33:50;10.77;;;5.72;;
57055;SDS011;42945;51.718;5.324;2023-07-31T22:36:16;9.18;;;5.03;;
57055;SDS011;42945;51.718;5.324;2023-07-31T22:38:41;9.60;;;5.25;;
57055;SDS011;42945;51.718;5.324;2023-07-31T22:41:07;13.93;;;5.55;;
57055;SDS011;42945;51.718;5.324;2023-07-31T22:43:33;11.52;;;5.05;;
57055;SDS011;42945;51.718;5.324;2023-07-31T22:45:59;9.43;;;5.22;;
57055;SDS011;42945;51.718;5.324;2023-07-31T22:48:24;11.95;;;5.50;;
57055;SDS011;42945;51.718;5.324;2023-07-31T22:50:50;9.32;;;4.72;;
57055;SDS011;42945;51.718;5.324;2023-07-31T22:53:15;8.15;;;5.35;;
57055;SDS011;42945;51.718;5.324;2023-07-31T22:55:40;9.60;;;5.03;;
57055;SDS011;42945;51.718;5.324;2023-07-31T22:58:05;9.57;;;5.38;;
57055;SDS011;42945;51.718;5.324;2023-07-31T23:00:31;8.85;;;5.38;;
57055;SDS011;42945;51.718;5.324;2023-07-31T23:02:56;11.60;;;5.15;;
57055;SDS011;42945;51.718;5.324;2023-07-31T23:05:22;10.80;;;5.18;;
57055;SDS011;42945;51.718;5.324;2023-07-31T23:07:48;12.27;;;5.35;;
57055;SDS011;42945;51.718;5.324;2023-07-31T23:10:13;9.82;;;4.60;;
57055;SDS011;42945;51.718;5.324;2023-07-31T23:12:39;10.75;;;4.95;;
57055;SDS011;42945;51.718;5.324;2023-07-31T23:15:04;10.75;;;4.53;;
57055;SDS011;42945;51.718;5.324;2023-07-31T23:17:30;9.10;;;4.75;;
57055;SDS011;42945;51.718;5.324;2023-07-31T23:19:56;10.02;;;5.03;;
57055;SDS011;42945;51.718;5.324;2023-07-31T23:22:21;13.77;;;4.38;;
57055;SDS011;42945;51.718;5.324;2023-07-31T23:24:46;9.77;;;4.40;;
57055;SDS011;42945;51.718;5.324;2023-07-31T23:27:11;7.50;;;3.85;;
57055;SDS011;42945;51.718;5.324;2023-07-31T23:29:37;9.05;;;3.75;;
57055;SDS011;42945;51.718;5.324;2023-07-31T23:32:05;12.45;;;3.65;;
57055;SDS011;42945;51.718;5.324;2023-07-31T23:34:31;9.27;;;3.80;;
57055;SDS011;42945;51.718;5.324;2023-07-31T23:36:56;9.48;;;3.58;;
57055;SDS011;42945;51.718;5.324;2023-07-31T23:39:21;6.68;;;3.15;;
57055;SDS011;42945;51.718;5.324;2023-07-31T23:41:47;10.10;;;2.90;;
57055;SDS011;42945;51.718;5.324;2023-07-31T23:44:13;5.55;;;3.25;;
57055;SDS011;42945;51.718;5.324;2023-07-31T23:46:38;10.23;;;3.35;;
57055;SDS011;42945;51.718;5.324;2023-07-31T23:51:36;10.73;;;3.08;;
57055;SDS011;42945;51.718;5.324;2023-07-31T23:54:01;8.65;;;3.42;;
57055;SDS011;42945;51.718;5.324;2023-07-31T23:56:27;9.20;;;3.47;;
57055;SDS011;42945;51.718;5.324;2023-07-31T23:58:52;6.38;;;3.47;;
